createdAt,value
2019-04-04T00:02:45.544Z,9.20
2019-04-04T00:06:48.564Z,9.20
2019-04-04T00:10:51.586Z,9.20
2019-04-04T00:14:55.616Z,9.30
2019-04-04T00:18:59.175Z,9.10
2019-04-04T00:23:02.267Z,8.90
2019-04-04T00:27:05.381Z,9.00
2019-04-04T00:31:08.388Z,8.90
2019-04-04T00:35:11.424Z,8.90
2019-04-04T00:39:14.427Z,8.80
2019-04-04T00:43:20.730Z,8.70
2019-04-04T00:47:22.386Z,8.40
2019-04-04T00:51:25.392Z,8.50
2019-04-04T00:55:28.428Z,8.60
2019-04-04T00:59:31.440Z,8.80
2019-04-04T01:03:34.469Z,8.60
2019-04-04T01:07:37.536Z,8.60
2019-04-04T01:11:40.529Z,8.80
2019-04-04T01:15:45.502Z,8.60
2019-04-04T01:19:49.030Z,8.70
2019-04-04T01:23:53.063Z,8.80
2019-04-04T01:27:56.074Z,8.80
2019-04-04T01:31:59.106Z,8.90
2019-04-04T01:36:02.329Z,8.90
2019-04-04T01:40:06.025Z,9.00
2019-04-04T01:44:11.176Z,9.00
2019-04-04T01:48:13.947Z,9.00
2019-04-04T01:52:16.954Z,9.10
2019-04-04T01:56:20.020Z,9.00
2019-04-04T02:00:23.027Z,8.90
2019-04-04T02:04:26.027Z,9.00
2019-04-04T02:08:31.395Z,9.00
2019-04-04T02:12:33.946Z,8.80
2019-04-04T02:16:38.184Z,8.90
2019-04-04T02:20:41.184Z,9.10
2019-04-04T02:24:44.195Z,9.10
2019-04-04T02:28:47.287Z,9.10
2019-04-04T02:32:50.322Z,9.20
2019-04-04T02:36:53.356Z,9.20
2019-04-04T02:40:56.618Z,9.10
2019-04-04T02:44:59.609Z,9.10
2019-04-04T02:49:02.728Z,9.00
2019-04-04T02:53:05.755Z,9.00
2019-04-04T02:57:09.585Z,8.90
2019-04-04T03:01:12.802Z,9.00
2019-04-04T03:05:18.808Z,8.90
2019-04-04T03:09:20.740Z,8.70
2019-04-04T03:13:23.835Z,8.80
2019-04-04T03:17:31.481Z,8.90
2019-04-04T03:21:32.817Z,8.90
2019-04-04T03:25:35.828Z,9.00
2019-04-04T03:29:38.856Z,8.90
2019-04-04T03:33:41.861Z,8.90
2019-04-04T03:37:46.340Z,8.90
2019-04-04T03:41:49.526Z,8.90
2019-04-04T03:45:52.551Z,8.90
2019-04-04T03:49:57.510Z,8.90
2019-04-04T03:54:02.388Z,9.00
2019-04-04T03:58:05.393Z,8.90
2019-04-04T04:02:08.401Z,8.90
2019-04-04T04:06:11.409Z,8.80
2019-04-04T04:10:14.408Z,8.70
2019-04-04T04:14:15.488Z,8.90
2019-04-04T04:18:21.261Z,8.80
2019-04-04T04:22:24.434Z,8.80
2019-04-04T04:26:27.535Z,8.80
2019-04-04T04:30:30.750Z,8.70
2019-04-04T04:34:34.354Z,8.80
2019-04-04T04:38:37.397Z,8.80
2019-04-04T04:42:40.480Z,8.80
2019-04-04T04:46:43.524Z,8.80
2019-04-04T04:50:46.538Z,8.80
2019-04-04T04:54:49.688Z,8.90
2019-04-04T04:58:55.406Z,9.00
2019-04-04T05:02:57.860Z,8.80
2019-04-04T05:07:00.876Z,8.80
2019-04-04T05:11:03.976Z,8.90
2019-04-04T05:15:07.099Z,8.80
2019-04-04T05:19:11.359Z,8.80
2019-04-04T05:23:15.518Z,8.90
2019-04-04T05:27:19.359Z,9.10
2019-04-04T05:31:22.371Z,9.20
2019-04-04T05:35:25.408Z,9.10
2019-04-04T05:39:28.407Z,9.10
2019-04-04T05:43:31.425Z,9.10
2019-04-04T05:47:34.457Z,9.10
2019-04-04T05:51:37.447Z,9.10
2019-04-04T05:55:41.837Z,8.80
2019-04-04T05:59:45.377Z,9.00
2019-04-04T06:03:48.383Z,9.00
2019-04-04T06:07:51.400Z,9.10
2019-04-04T06:11:54.412Z,9.10
2019-04-04T06:15:57.577Z,9.20
2019-04-04T06:20:01.519Z,9.20
2019-04-04T06:24:04.747Z,9.20
2019-04-04T06:28:07.993Z,9.10
2019-04-04T06:32:11.176Z,9.30
2019-04-04T06:36:14.241Z,9.40
2019-04-04T06:40:17.639Z,9.40
2019-04-04T06:44:20.725Z,9.50
2019-04-04T06:48:24.609Z,9.50
2019-04-04T06:52:27.646Z,9.50
2019-04-04T06:56:32.017Z,9.50
2019-04-04T07:00:35.579Z,9.50
2019-04-04T07:04:38.588Z,9.50
2019-04-04T07:08:41.612Z,9.50
2019-04-04T07:12:44.664Z,9.50
2019-04-04T07:16:47.783Z,9.30
2019-04-04T07:20:52.149Z,9.40
2019-04-04T07:24:55.170Z,9.30
2019-04-04T07:28:58.185Z,9.20
2019-04-04T07:33:01.294Z,9.10
2019-04-04T07:37:04.407Z,9.20
2019-04-04T07:41:08.427Z,9.30
2019-04-04T07:45:14.338Z,9.30
2019-04-04T07:49:17.842Z,9.40
2019-04-04T07:53:20.884Z,9.40
2019-04-04T07:57:23.889Z,9.30
2019-04-04T08:01:27.249Z,9.40
2019-04-04T08:05:30.240Z,9.40
2019-04-04T08:09:33.258Z,9.50
2019-04-04T08:13:36.291Z,9.40
2019-04-04T08:17:39.352Z,9.50
2019-04-04T08:21:43.584Z,9.60
2019-04-04T08:25:46.659Z,9.60
2019-04-04T08:29:49.653Z,9.50
2019-04-04T08:33:52.652Z,9.40
2019-04-04T08:37:55.733Z,9.40
2019-04-04T08:41:58.832Z,9.50
2019-04-04T08:46:01.834Z,9.70
2019-04-04T08:50:05.037Z,9.60
2019-04-04T08:54:08.052Z,9.60
2019-04-04T08:58:11.172Z,9.60
2019-04-04T09:02:14.266Z,9.50
2019-04-04T09:06:17.417Z,9.60
2019-04-04T09:10:20.439Z,9.70
2019-04-04T09:14:23.508Z,9.70
2019-04-04T09:18:26.744Z,9.70
2019-04-04T09:22:30.408Z,9.80
2019-04-04T09:26:33.433Z,10.00
2019-04-04T09:30:36.548Z,10.10
2019-04-04T09:34:39.570Z,10.00
2019-04-04T09:38:42.578Z,10.10
2019-04-04T09:42:45.604Z,10.00
2019-04-04T09:46:48.609Z,9.90
2019-04-04T09:50:51.626Z,10.10
2019-04-04T09:54:54.837Z,10.00
2019-04-04T09:58:57.896Z,10.30
2019-04-04T10:03:00.991Z,10.50
2019-04-04T10:07:04.030Z,10.60
2019-04-04T10:11:07.258Z,10.40
2019-04-04T10:15:10.755Z,10.70
2019-04-04T10:19:13.774Z,10.70
2019-04-04T10:23:18.094Z,10.60
2019-04-04T10:27:21.109Z,10.60
2019-04-04T10:31:24.136Z,10.50
2019-04-04T10:35:27.133Z,10.50
2019-04-04T10:39:32.704Z,10.50
2019-04-04T10:43:35.063Z,10.50
2019-04-04T10:47:38.073Z,10.40
2019-04-04T10:51:41.140Z,10.40
2019-04-04T10:55:44.252Z,10.60
2019-04-04T10:59:47.287Z,10.50
2019-04-04T11:03:50.295Z,10.60
2019-04-04T11:07:53.312Z,10.40
2019-04-04T11:11:56.326Z,10.10
2019-04-04T11:15:59.467Z,10.10
2019-04-04T11:20:04.681Z,10.10
2019-04-04T11:24:08.711Z,10.20
2019-04-04T11:28:11.812Z,10.10
2019-04-04T11:32:14.816Z,10.00
2019-04-04T11:36:17.851Z,10.00
2019-04-04T11:40:20.956Z,10.10
2019-04-04T11:44:24.051Z,10.00
2019-04-04T11:48:27.154Z,9.90
2019-04-04T11:52:30.159Z,9.80
2019-04-04T11:56:33.180Z,10.10
2019-04-04T12:00:38.134Z,10.10
2019-04-04T12:04:42.236Z,10.10
2019-04-04T12:08:46.132Z,10.10
2019-04-04T12:12:49.701Z,9.90
2019-04-04T12:16:52.889Z,9.80
2019-04-04T12:20:55.984Z,9.80
2019-04-04T12:24:59.888Z,9.80
2019-04-04T12:29:03.100Z,9.70
2019-04-04T12:33:06.129Z,9.80
2019-04-04T12:37:09.151Z,9.70
2019-04-04T12:41:12.172Z,9.80
2019-04-04T12:45:15.379Z,9.70
2019-04-04T12:49:18.377Z,9.90
2019-04-04T12:53:21.471Z,9.90
2019-04-04T12:57:24.483Z,9.90
2019-04-04T13:01:28.878Z,9.90
2019-04-04T13:05:33.111Z,10.20
2019-04-04T13:09:39.153Z,10.20
2019-04-04T13:13:42.195Z,10.10
2019-04-04T13:17:45.290Z,10.20
2019-04-04T13:21:48.805Z,10.10
2019-04-04T13:25:53.458Z,10.20
2019-04-04T13:29:56.468Z,10.00
2019-04-04T13:33:59.484Z,10.20
2019-04-04T13:38:02.479Z,10.20
2019-04-04T13:42:07.379Z,10.30
2019-04-04T13:46:11.182Z,10.30
2019-04-04T13:50:19.769Z,10.30
2019-04-04T13:54:20.359Z,10.20
2019-04-04T13:58:23.371Z,10.00
2019-04-04T14:02:26.694Z,10.10
2019-04-04T14:06:29.865Z,10.20
2019-04-04T14:10:32.976Z,10.20
2019-04-04T14:14:36.476Z,10.30
2019-04-04T14:18:42.370Z,10.20
2019-04-04T14:22:45.110Z,10.20
2019-04-04T14:26:48.772Z,10.30
2019-04-04T14:30:51.900Z,10.40
2019-04-04T14:34:54.957Z,10.50
2019-04-04T14:38:58.057Z,10.30
2019-04-04T14:43:07.300Z,10.50
2019-04-04T14:47:10.302Z,10.70
2019-04-04T14:51:14.409Z,11.00
2019-04-04T14:55:17.949Z,11.00
2019-04-04T14:59:22.569Z,10.90
2019-04-04T15:03:25.622Z,10.90
2019-04-04T15:07:28.657Z,10.90
2019-04-04T15:11:31.713Z,10.70
2019-04-04T15:15:34.737Z,10.70
2019-04-04T15:19:37.880Z,10.80
2019-04-04T15:23:40.951Z,10.70
2019-04-04T15:27:44.703Z,10.70
2019-04-04T15:31:47.721Z,10.70
2019-04-04T15:35:50.752Z,10.70
2019-04-04T15:39:53.732Z,10.60
2019-04-04T15:43:56.990Z,10.50
2019-04-04T15:48:00.061Z,10.20
2019-04-04T15:52:03.807Z,10.30
2019-04-04T15:56:07.093Z,10.10
2019-04-04T16:00:10.417Z,10.00
2019-04-04T16:04:13.704Z,10.10
2019-04-04T16:08:16.944Z,9.90
2019-04-04T16:12:20.219Z,10.00
2019-04-04T16:16:23.655Z,9.90
2019-04-04T16:20:27.102Z,9.90
2019-04-04T16:24:30.337Z,9.80
2019-04-04T16:28:34.532Z,9.80
2019-04-04T16:32:37.544Z,9.70
2019-04-04T16:36:40.584Z,9.80
2019-04-04T16:40:43.779Z,9.90
2019-04-04T16:44:46.976Z,10.10
2019-04-04T16:48:50.065Z,10.10
2019-04-04T16:52:53.185Z,10.10
2019-04-04T16:56:56.495Z,10.10
2019-04-04T17:00:59.749Z,10.00
2019-04-04T17:05:04.229Z,9.90
2019-04-04T17:09:07.693Z,10.00
2019-04-04T17:13:10.729Z,9.90
2019-04-04T17:17:13.904Z,9.70
2019-04-04T17:21:17.143Z,9.60
2019-04-04T17:25:22.394Z,9.60
2019-04-04T17:29:28.292Z,9.60
2019-04-04T17:33:31.336Z,9.60
2019-04-04T17:37:35.075Z,9.60
2019-04-04T17:41:38.254Z,9.60
2019-04-04T17:45:41.627Z,9.50
2019-04-04T17:49:46.615Z,9.40
2019-04-04T17:53:52.380Z,9.20
2019-04-04T17:57:54.948Z,9.20
2019-04-04T18:01:57.956Z,9.20
2019-04-04T18:06:01.143Z,9.40
2019-04-04T18:10:05.396Z,9.40
2019-04-04T18:14:08.410Z,9.20
2019-04-04T18:18:11.490Z,9.10
2019-04-04T18:22:14.601Z,9.20
2019-04-04T18:26:17.769Z,9.30
2019-04-04T18:30:22.002Z,9.30
2019-04-04T18:34:25.011Z,9.20
2019-04-04T18:38:29.947Z,9.30
2019-04-04T18:42:33.158Z,9.30
2019-04-04T18:46:36.250Z,9.30
2019-04-04T18:50:39.549Z,9.30
2019-04-04T18:54:42.682Z,9.20
2019-04-04T18:58:45.769Z,9.10
2019-04-04T19:02:48.770Z,9.20
2019-04-04T19:06:51.810Z,9.10
2019-04-04T19:10:54.830Z,9.10
2019-04-04T19:14:57.845Z,9.20
2019-04-04T19:19:00.860Z,9.10
2019-04-04T19:23:03.948Z,9.10
2019-04-04T19:27:07.124Z,9.20
2019-04-04T19:31:10.959Z,9.20
2019-04-04T19:35:14.846Z,9.20
2019-04-04T19:39:17.952Z,9.20
2019-04-04T19:43:20.963Z,9.10
2019-04-04T19:47:25.459Z,8.90
2019-04-04T19:51:30.543Z,9.00
2019-04-04T19:55:33.747Z,9.10
2019-04-04T19:59:37.462Z,9.10
2019-04-04T20:03:40.603Z,9.10
2019-04-04T20:07:43.631Z,9.10
2019-04-04T20:11:46.648Z,9.10
2019-04-04T20:15:49.790Z,9.20
2019-04-04T20:19:52.792Z,9.20
2019-04-04T20:23:56.104Z,9.20
2019-04-04T20:27:59.147Z,9.20
2019-04-04T20:32:04.121Z,9.10
2019-04-04T20:36:07.130Z,9.10
2019-04-04T20:40:10.292Z,9.10
2019-04-04T20:44:13.384Z,9.10
2019-04-04T20:48:16.448Z,9.10
2019-04-04T20:52:19.557Z,9.10
2019-04-04T20:56:22.572Z,9.10
2019-04-04T21:00:25.598Z,9.10
2019-04-04T21:04:28.635Z,9.00
2019-04-04T21:08:31.653Z,9.10
2019-04-04T21:12:34.779Z,9.10
2019-04-04T21:16:37.791Z,9.10
2019-04-04T21:20:40.882Z,9.10
2019-04-04T21:24:44.058Z,9.10
2019-04-04T21:28:48.241Z,9.10
2019-04-04T21:32:52.856Z,9.10
2019-04-04T21:36:55.877Z,9.10
2019-04-04T21:40:58.925Z,9.00
2019-04-04T21:45:04.723Z,9.00
2019-04-04T21:49:07.745Z,9.00
2019-04-04T21:53:10.824Z,9.00
2019-04-04T21:57:13.884Z,9.00
2019-04-04T22:01:17.006Z,9.00
2019-04-04T22:05:20.036Z,9.00
2019-04-04T22:09:23.063Z,9.00
2019-04-04T22:13:26.148Z,8.90
2019-04-04T22:17:29.149Z,9.00
2019-04-04T22:21:32.159Z,8.90
2019-04-04T22:25:35.177Z,9.00
2019-04-04T22:29:38.221Z,9.10
2019-04-04T22:33:42.184Z,9.00
2019-04-04T22:37:45.203Z,9.00
2019-04-04T22:41:48.229Z,8.90
2019-04-04T22:45:51.242Z,9.00
2019-04-04T22:49:54.270Z,8.90
2019-04-04T22:53:57.312Z,8.80
2019-04-04T22:58:00.316Z,8.80
2019-04-04T23:02:03.353Z,8.80
2019-04-04T23:06:06.384Z,8.70
2019-04-04T23:10:09.652Z,8.70
2019-04-04T23:14:12.688Z,8.60
2019-04-04T23:18:15.998Z,8.80
2019-04-04T23:22:19.021Z,8.80
2019-04-04T23:26:22.040Z,8.80
2019-04-04T23:30:25.279Z,8.70
2019-04-04T23:34:29.311Z,8.60
2019-04-04T23:38:32.341Z,8.60
2019-04-04T23:42:35.355Z,8.60
2019-04-04T23:46:38.380Z,8.70
2019-04-04T23:50:41.423Z,8.80
2019-04-04T23:54:44.424Z,8.70
2019-04-04T23:58:47.457Z,8.70
